sensor_id;sensor_type;location;lat;lon;timestamp;pressure;altitude;pressure_sealevel;temperature;humidity
76680;BME280;65597;51.520;-0.224;2023-04-24T00:01:02;100502.15;;;8.74;50.33
76680;BME280;65597;51.520;-0.224;2023-04-24T00:03:27;100505.93;;;9.07;50.01
76680;BME280;65597;51.520;-0.224;2023-04-24T00:05:53;100508.19;;;9.14;49.51
76680;BME280;65597;51.520;-0.224;2023-04-24T00:08:18;100512.34;;;9.22;48.86
76680;BME280;65597;51.520;-0.224;2023-04-24T00:10:45;100520.48;;;8.81;49.69
76680;BME280;65597;51.520;-0.224;2023-04-24T00:13:09;100524.56;;;9.00;49.69
76680;BME280;65597;51.520;-0.224;2023-04-24T00:15:34;100528.36;;;9.03;49.55
76680;BME280;65597;51.520;-0.224;2023-04-24T00:18:00;100533.51;;;7.98;50.94
76680;BME280;65597;51.520;-0.224;2023-04-24T00:20:25;100534.55;;;8.40;50.71
76680;BME280;65597;51.520;-0.224;2023-04-24T00:22:51;100538.77;;;8.29;51.09
76680;BME280;65597;51.520;-0.224;2023-04-24T00:25:16;100537.99;;;8.42;51.36
76680;BME280;65597;51.520;-0.224;2023-04-24T00:27:42;100543.82;;;8.03;52.01
76680;BME280;65597;51.520;-0.224;2023-04-24T00:30:08;100547.14;;;8.22;51.47
76680;BME280;65597;51.520;-0.224;2023-04-24T00:32:33;100549.35;;;7.69;52.31
76680;BME280;65597;51.520;-0.224;2023-04-24T00:34:59;100550.04;;;8.27;51.69
76680;BME280;65597;51.520;-0.224;2023-04-24T00:37:24;100549.91;;;8.64;51.21
76680;BME280;65597;51.520;-0.224;2023-04-24T00:39:50;100551.54;;;8.67;50.95
76680;BME280;65597;51.520;-0.224;2023-04-24T00:42:15;100554.56;;;8.35;51.36
76680;BME280;65597;51.520;-0.224;2023-04-24T00:44:40;100558.86;;;8.66;51.12
76680;BME280;65597;51.520;-0.224;2023-04-24T00:47:07;100563.65;;;8.79;50.67
76680;BME280;65597;51.520;-0.224;2023-04-24T00:49:32;100565.23;;;8.90;50.26
76680;BME280;65597;51.520;-0.224;2023-04-24T00:51:57;100566.43;;;8.62;51.17
76680;BME280;65597;51.520;-0.224;2023-04-24T00:54:23;100565.97;;;9.14;50.33
76680;BME280;65597;51.520;-0.224;2023-04-24T00:56:48;100562.07;;;8.99;50.68
76680;BME280;65597;51.520;-0.224;2023-04-24T00:59:16;100560.40;;;9.34;50.00
76680;BME280;65597;51.520;-0.224;2023-04-24T01:01:39;100553.33;;;9.23;49.76
76680;BME280;65597;51.520;-0.224;2023-04-24T01:04:04;100556.35;;;9.51;49.81
76680;BME280;65597;51.520;-0.224;2023-04-24T01:06:30;100558.73;;;9.61;49.27
76680;BME280;65597;51.520;-0.224;2023-04-24T01:08:55;100564.33;;;9.69;49.42
76680;BME280;65597;51.520;-0.224;2023-04-24T01:11:23;100569.87;;;9.70;49.10
76680;BME280;65597;51.520;-0.224;2023-04-24T01:13:47;100574.83;;;9.70;48.53
76680;BME280;65597;51.520;-0.224;2023-04-24T01:16:11;100579.56;;;9.83;48.58
76680;BME280;65597;51.520;-0.224;2023-04-24T01:18:37;100585.06;;;9.78;48.45
76680;BME280;65597;51.520;-0.224;2023-04-24T01:21:04;100590.49;;;9.75;48.09
76680;BME280;65597;51.520;-0.224;2023-04-24T01:23:28;100593.36;;;9.86;48.08
76680;BME280;65597;51.520;-0.224;2023-04-24T01:25:53;100588.55;;;9.66;48.44
76680;BME280;65597;51.520;-0.224;2023-04-24T01:28:19;100582.56;;;9.81;48.19
76680;BME280;65597;51.520;-0.224;2023-04-24T01:30:45;100579.27;;;9.44;48.83
76680;BME280;65597;51.520;-0.224;2023-04-24T01:33:10;100577.38;;;9.41;48.82
76680;BME280;65597;51.520;-0.224;2023-04-24T01:35:37;100574.88;;;9.62;48.52
76680;BME280;65597;51.520;-0.224;2023-04-24T01:38:01;100575.02;;;9.79;48.07
76680;BME280;65597;51.520;-0.224;2023-04-24T01:40:26;100573.27;;;9.93;48.03
76680;BME280;65597;51.520;-0.224;2023-04-24T01:42:51;100574.25;;;10.01;47.77
76680;BME280;65597;51.520;-0.224;2023-04-24T01:45:16;100574.88;;;9.88;47.26
76680;BME280;65597;51.520;-0.224;2023-04-24T01:47:42;100574.13;;;10.21;47.06
76680;BME280;65597;51.520;-0.224;2023-04-24T01:50:09;100576.71;;;10.07;46.75
76680;BME280;65597;51.520;-0.224;2023-04-24T01:52:33;100578.90;;;10.27;46.61
76680;BME280;65597;51.520;-0.224;2023-04-24T01:55:00;100584.34;;;10.32;46.49
76680;BME280;65597;51.520;-0.224;2023-04-24T01:57:24;100592.80;;;10.25;46.78
76680;BME280;65597;51.520;-0.224;2023-04-24T01:59:49;100590.90;;;10.39;46.40
76680;BME280;65597;51.520;-0.224;2023-04-24T02:02:15;100589.87;;;10.32;46.37
76680;BME280;65597;51.520;-0.224;2023-04-24T02:04:41;100590.99;;;10.21;46.10
76680;BME280;65597;51.520;-0.224;2023-04-24T02:07:06;100594.52;;;10.51;46.12
76680;BME280;65597;51.520;-0.224;2023-04-24T02:09:32;100591.37;;;10.36;46.07
76680;BME280;65597;51.520;-0.224;2023-04-24T02:11:59;100594.93;;;10.66;46.03
76680;BME280;65597;51.520;-0.224;2023-04-24T02:14:22;100598.57;;;10.34;46.08
76680;BME280;65597;51.520;-0.224;2023-04-24T02:16:47;100606.23;;;10.51;45.92
76680;BME280;65597;51.520;-0.224;2023-04-24T02:19:13;100606.70;;;10.02;46.27
76680;BME280;65597;51.520;-0.224;2023-04-24T02:21:38;100606.33;;;10.27;46.22
76680;BME280;65597;51.520;-0.224;2023-04-24T02:24:04;100605.98;;;10.16;46.42
76680;BME280;65597;51.520;-0.224;2023-04-24T02:26:29;100608.31;;;10.14;46.01
76680;BME280;65597;51.520;-0.224;2023-04-24T02:28:55;100611.12;;;10.36;46.01
76680;BME280;65597;51.520;-0.224;2023-04-24T02:31:20;100612.04;;;10.11;46.13
76680;BME280;65597;51.520;-0.224;2023-04-24T02:33:45;100620.13;;;10.31;46.28
76680;BME280;65597;51.520;-0.224;2023-04-24T02:36:11;100625.52;;;9.93;46.47
76680;BME280;65597;51.520;-0.224;2023-04-24T02:38:36;100630.07;;;10.12;46.61
76680;BME280;65597;51.520;-0.224;2023-04-24T02:41:02;100629.24;;;10.04;46.70
76680;BME280;65597;51.520;-0.224;2023-04-24T02:43:27;100628.48;;;9.93;46.78
76680;BME280;65597;51.520;-0.224;2023-04-24T02:45:52;100630.42;;;9.92;46.83
76680;BME280;65597;51.520;-0.224;2023-04-24T02:48:18;100633.38;;;9.85;46.87
76680;BME280;65597;51.520;-0.224;2023-04-24T02:50:44;100640.44;;;9.35;47.26
76680;BME280;65597;51.520;-0.224;2023-04-24T02:53:10;100642.55;;;9.44;47.48
76680;BME280;65597;51.520;-0.224;2023-04-24T02:55:35;100645.55;;;9.16;47.90
76680;BME280;65597;51.520;-0.224;2023-04-24T02:58:00;100650.79;;;9.32;48.19
76680;BME280;65597;51.520;-0.224;2023-04-24T03:00:28;100657.31;;;9.40;48.10
76680;BME280;65597;51.520;-0.224;2023-04-24T03:02:51;100660.22;;;9.18;48.15
76680;BME280;65597;51.520;-0.224;2023-04-24T03:05:16;100661.86;;;9.13;48.54
76680;BME280;65597;51.520;-0.224;2023-04-24T03:07:42;100663.11;;;9.17;48.48
76680;BME280;65597;51.520;-0.224;2023-04-24T03:10:08;100664.10;;;9.36;48.02
76680;BME280;65597;51.520;-0.224;2023-04-24T03:12:35;100666.40;;;9.59;47.66
76680;BME280;65597;51.520;-0.224;2023-04-24T03:14:58;100667.89;;;9.24;48.07
76680;BME280;65597;51.520;-0.224;2023-04-24T03:17:24;100675.11;;;9.64;47.87
76680;BME280;65597;51.520;-0.224;2023-04-24T03:19:49;100680.00;;;9.20;48.11
76680;BME280;65597;51.520;-0.224;2023-04-24T03:22:15;100682.10;;;9.02;48.40
76680;BME280;65597;51.520;-0.224;2023-04-24T03:24:40;100680.14;;;8.94;48.75
76680;BME280;65597;51.520;-0.224;2023-04-24T03:27:05;100681.10;;;9.07;48.12
76680;BME280;65597;51.520;-0.224;2023-04-24T03:29:30;100684.03;;;8.67;48.21
76680;BME280;65597;51.520;-0.224;2023-04-24T03:31:56;100686.40;;;8.67;48.74
76680;BME280;65597;51.520;-0.224;2023-04-24T03:34:21;100682.86;;;8.89;48.91
76680;BME280;65597;51.520;-0.224;2023-04-24T03:36:47;100682.77;;;8.67;48.90
76680;BME280;65597;51.520;-0.224;2023-04-24T03:39:13;100685.00;;;8.39;49.73
76680;BME280;65597;51.520;-0.224;2023-04-24T03:41:38;100689.65;;;8.48;49.12
76680;BME280;65597;51.520;-0.224;2023-04-24T03:44:03;100688.01;;;8.51;49.33
76680;BME280;65597;51.520;-0.224;2023-04-24T03:46:28;100693.29;;;8.36;49.76
76680;BME280;65597;51.520;-0.224;2023-04-24T03:48:55;100697.82;;;8.32;49.81
76680;BME280;65597;51.520;-0.224;2023-04-24T03:51:19;100701.79;;;8.10;50.15
76680;BME280;65597;51.520;-0.224;2023-04-24T03:53:45;100707.56;;;8.08;50.29
76680;BME280;65597;51.520;-0.224;2023-04-24T03:56:10;100713.61;;;7.34;51.69
76680;BME280;65597;51.520;-0.224;2023-04-24T03:58:36;100712.27;;;7.18;52.15
76680;BME280;65597;51.520;-0.224;2023-04-24T04:01:08;100713.49;;;7.04;53.05
76680;BME280;65597;51.520;-0.224;2023-04-24T04:03:26;100712.69;;;7.40;52.48
76680;BME280;65597;51.520;-0.224;2023-04-24T04:05:52;100712.85;;;7.44;52.77
76680;BME280;65597;51.520;-0.224;2023-04-24T04:08:17;100713.94;;;7.48;52.09
76680;BME280;65597;51.520;-0.224;2023-04-24T04:10:42;100717.34;;;7.58;51.94
76680;BME280;65597;51.520;-0.224;2023-04-24T04:13:09;100722.50;;;7.55;52.65
76680;BME280;65597;51.520;-0.224;2023-04-24T04:15:33;100727.27;;;7.40;52.24
76680;BME280;65597;51.520;-0.224;2023-04-24T04:17:59;100733.15;;;7.65;51.85
76680;BME280;65597;51.520;-0.224;2023-04-24T04:20:24;100738.34;;;7.66;51.96
76680;BME280;65597;51.520;-0.224;2023-04-24T04:22:49;100745.98;;;7.26;52.77
76680;BME280;65597;51.520;-0.224;2023-04-24T04:25:16;100746.42;;;8.17;51.50
76680;BME280;65597;51.520;-0.224;2023-04-24T04:27:40;100750.04;;;8.00;51.25
76680;BME280;65597;51.520;-0.224;2023-04-24T04:30:07;100753.30;;;7.83;51.65
76680;BME280;65597;51.520;-0.224;2023-04-24T04:32:31;100756.97;;;7.88;51.41
76680;BME280;65597;51.520;-0.224;2023-04-24T04:34:57;100757.54;;;7.74;51.24
76680;BME280;65597;51.520;-0.224;2023-04-24T04:37:22;100756.10;;;7.71;51.20
76680;BME280;65597;51.520;-0.224;2023-04-24T04:39:47;100762.25;;;7.79;51.35
76680;BME280;65597;51.520;-0.224;2023-04-24T04:42:13;100762.59;;;8.08;50.62
76680;BME280;65597;51.520;-0.224;2023-04-24T04:44:38;100767.91;;;8.21;50.69
76680;BME280;65597;51.520;-0.224;2023-04-24T04:47:04;100769.33;;;8.06;51.03
76680;BME280;65597;51.520;-0.224;2023-04-24T04:49:29;100767.77;;;8.13;50.87
76680;BME280;65597;51.520;-0.224;2023-04-24T04:51:54;100777.12;;;8.16;50.20
76680;BME280;65597;51.520;-0.224;2023-04-24T04:54:19;100781.28;;;8.56;49.85
76680;BME280;65597;51.520;-0.224;2023-04-24T04:56:44;100784.94;;;8.57;49.62
76680;BME280;65597;51.520;-0.224;2023-04-24T04:59:11;100786.20;;;8.38;49.78
76680;BME280;65597;51.520;-0.224;2023-04-24T05:01:38;100790.47;;;8.33;49.61
76680;BME280;65597;51.520;-0.224;2023-04-24T05:04:01;100796.27;;;8.70;48.89
76680;BME280;65597;51.520;-0.224;2023-04-24T05:06:27;100794.96;;;8.66;48.81
76680;BME280;65597;51.520;-0.224;2023-04-24T05:08:52;100800.44;;;8.54;49.44
76680;BME280;65597;51.520;-0.224;2023-04-24T05:11:17;100804.76;;;8.66;49.40
76680;BME280;65597;51.520;-0.224;2023-04-24T05:13:45;100812.78;;;8.49;49.74
76680;BME280;65597;51.520;-0.224;2023-04-24T05:16:08;100811.54;;;8.34;50.17
76680;BME280;65597;51.520;-0.224;2023-04-24T05:18:34;100809.81;;;8.65;49.46
76680;BME280;65597;51.520;-0.224;2023-04-24T05:20:59;100816.02;;;8.40;49.50
76680;BME280;65597;51.520;-0.224;2023-04-24T05:23:24;100821.05;;;8.43;49.93
76680;BME280;65597;51.520;-0.224;2023-04-24T05:25:49;100822.70;;;8.37;50.07
76680;BME280;65597;51.520;-0.224;2023-04-24T05:28:15;100825.27;;;8.57;49.66
76680;BME280;65597;51.520;-0.224;2023-04-24T05:30:40;100825.85;;;8.33;50.24
76680;BME280;65597;51.520;-0.224;2023-04-24T05:33:05;100823.99;;;8.61;49.76
76680;BME280;65597;51.520;-0.224;2023-04-24T05:35:31;100826.82;;;8.79;49.29
76680;BME280;65597;51.520;-0.224;2023-04-24T05:37:57;100829.07;;;8.16;49.88
76680;BME280;65597;51.520;-0.224;2023-04-24T05:40:22;100825.64;;;7.76;50.06
76680;BME280;65597;51.520;-0.224;2023-04-24T05:42:47;100827.71;;;7.93;50.32
76680;BME280;65597;51.520;-0.224;2023-04-24T05:45:13;100835.06;;;8.46;49.66
76680;BME280;65597;51.520;-0.224;2023-04-24T05:47:39;100839.60;;;8.61;49.46
76680;BME280;65597;51.520;-0.224;2023-04-24T05:50:06;100841.99;;;8.73;48.83
76680;BME280;65597;51.520;-0.224;2023-04-24T05:52:29;100841.40;;;8.99;48.63
76680;BME280;65597;51.520;-0.224;2023-04-24T05:54:54;100843.68;;;9.13;48.40
76680;BME280;65597;51.520;-0.224;2023-04-24T05:57:19;100848.51;;;8.75;47.27
76680;BME280;65597;51.520;-0.224;2023-04-24T05:59:45;100848.69;;;8.16;47.36
76680;BME280;65597;51.520;-0.224;2023-04-24T06:02:11;100848.38;;;8.42;46.89
76680;BME280;65597;51.520;-0.224;2023-04-24T06:04:35;100848.10;;;8.77;46.44
76680;BME280;65597;51.520;-0.224;2023-04-24T06:07:01;100848.63;;;8.57;46.67
76680;BME280;65597;51.520;-0.224;2023-04-24T06:09:26;100849.46;;;8.69;46.27
76680;BME280;65597;51.520;-0.224;2023-04-24T06:11:52;100849.32;;;8.97;46.37
76680;BME280;65597;51.520;-0.224;2023-04-24T06:14:20;100849.57;;;9.00;46.23
76680;BME280;65597;51.520;-0.224;2023-04-24T06:16:42;100855.19;;;9.10;46.11
76680;BME280;65597;51.520;-0.224;2023-04-24T06:19:08;100858.62;;;9.27;46.03
76680;BME280;65597;51.520;-0.224;2023-04-24T06:21:34;100860.32;;;9.09;45.82
76680;BME280;65597;51.520;-0.224;2023-04-24T06:23:59;100869.76;;;8.82;44.45
76680;BME280;65597;51.520;-0.224;2023-04-24T06:26:25;100874.32;;;8.68;44.49
76680;BME280;65597;51.520;-0.224;2023-04-24T06:28:55;100874.47;;;8.97;44.41
76680;BME280;65597;51.520;-0.224;2023-04-24T06:31:15;100871.89;;;9.24;44.40
76680;BME280;65597;51.520;-0.224;2023-04-24T06:33:46;100869.99;;;9.00;43.79
76680;BME280;65597;51.520;-0.224;2023-04-24T06:36:06;100870.31;;;9.34;43.74
76680;BME280;65597;51.520;-0.224;2023-04-24T06:38:33;100872.69;;;9.40;43.23
76680;BME280;65597;51.520;-0.224;2023-04-24T06:41:02;100872.55;;;8.94;43.09
76680;BME280;65597;51.520;-0.224;2023-04-24T06:43:22;100879.75;;;9.02;43.00
76680;BME280;65597;51.520;-0.224;2023-04-24T06:45:48;100884.44;;;8.84;42.69
76680;BME280;65597;51.520;-0.224;2023-04-24T06:48:13;100884.49;;;8.73;43.31
76680;BME280;65597;51.520;-0.224;2023-04-24T06:50:39;100886.66;;;8.91;50.65
76680;BME280;65597;51.520;-0.224;2023-04-24T06:53:09;100883.69;;;8.83;42.73
76680;BME280;65597;51.520;-0.224;2023-04-24T06:55:30;100884.53;;;9.06;42.63
76680;BME280;65597;51.520;-0.224;2023-04-24T06:57:55;100885.95;;;8.66;41.25
76680;BME280;65597;51.520;-0.224;2023-04-24T07:00:20;100889.78;;;8.89;41.40
76680;BME280;65597;51.520;-0.224;2023-04-24T07:02:47;100889.63;;;9.28;42.05
76680;BME280;65597;51.520;-0.224;2023-04-24T07:05:11;100886.01;;;9.16;42.21
76680;BME280;65597;51.520;-0.224;2023-04-24T07:07:37;100884.98;;;9.49;41.32
76680;BME280;65597;51.520;-0.224;2023-04-24T07:10:03;100885.40;;;9.57;41.50
76680;BME280;65597;51.520;-0.224;2023-04-24T07:12:27;100882.19;;;9.04;41.01
76680;BME280;65597;51.520;-0.224;2023-04-24T07:14:53;100885.62;;;9.29;40.95
76680;BME280;65597;51.520;-0.224;2023-04-24T07:17:18;100889.02;;;9.08;41.29
76680;BME280;65597;51.520;-0.224;2023-04-24T07:19:44;100892.60;;;9.38;41.50
76680;BME280;65597;51.520;-0.224;2023-04-24T07:22:09;100892.97;;;9.78;41.99
76680;BME280;65597;51.520;-0.224;2023-04-24T07:24:36;100888.65;;;9.68;41.16
76680;BME280;65597;51.520;-0.224;2023-04-24T07:27:00;100888.67;;;9.56;41.55
76680;BME280;65597;51.520;-0.224;2023-04-24T07:29:26;100884.60;;;9.64;41.25
76680;BME280;65597;51.520;-0.224;2023-04-24T07:31:51;100887.28;;;9.81;40.96
76680;BME280;65597;51.520;-0.224;2023-04-24T07:34:17;100892.16;;;9.38;39.39
76680;BME280;65597;51.520;-0.224;2023-04-24T07:36:42;100899.07;;;9.79;39.92
76680;BME280;65597;51.520;-0.224;2023-04-24T07:39:08;100901.72;;;9.61;39.80
76680;BME280;65597;51.520;-0.224;2023-04-24T07:41:33;100902.88;;;9.50;40.44
76680;BME280;65597;51.520;-0.224;2023-04-24T07:43:59;100901.04;;;9.28;39.13
76680;BME280;65597;51.520;-0.224;2023-04-24T07:46:24;100901.11;;;9.15;39.84
76680;BME280;65597;51.520;-0.224;2023-04-24T07:48:50;100899.58;;;9.31;39.57
76680;BME280;65597;51.520;-0.224;2023-04-24T07:51:16;100904.54;;;9.35;40.12
76680;BME280;65597;51.520;-0.224;2023-04-24T07:53:41;100905.26;;;8.88;40.22
76680;BME280;65597;51.520;-0.224;2023-04-24T07:56:06;100910.85;;;9.22;39.97
76680;BME280;65597;51.520;-0.224;2023-04-24T07:58:32;100912.76;;;9.28;40.44
76680;BME280;65597;51.520;-0.224;2023-04-24T08:00:57;100911.46;;;9.49;40.54
76680;BME280;65597;51.520;-0.224;2023-04-24T08:03:23;100911.36;;;9.53;39.35
76680;BME280;65597;51.520;-0.224;2023-04-24T08:05:48;100918.78;;;9.09;39.77
76680;BME280;65597;51.520;-0.224;2023-04-24T08:08:20;100918.67;;;8.78;40.42
76680;BME280;65597;51.520;-0.224;2023-04-24T08:10:39;100917.72;;;9.33;39.74
76680;BME280;65597;51.520;-0.224;2023-04-24T08:13:04;100908.20;;;9.11;39.95
76680;BME280;65597;51.520;-0.224;2023-04-24T08:15:32;100908.58;;;9.43;39.22
76680;BME280;65597;51.520;-0.224;2023-04-24T08:17:55;100912.81;;;9.43;39.52
76680;BME280;65597;51.520;-0.224;2023-04-24T08:20:20;100915.55;;;9.21;39.65
76680;BME280;65597;51.520;-0.224;2023-04-24T08:22:46;100917.82;;;8.65;39.77
76680;BME280;65597;51.520;-0.224;2023-04-24T08:25:11;100920.51;;;8.89;39.23
76680;BME280;65597;51.520;-0.224;2023-04-24T08:27:37;100926.25;;;9.03;39.46
76680;BME280;65597;51.520;-0.224;2023-04-24T08:30:03;100928.21;;;9.10;39.09
76680;BME280;65597;51.520;-0.224;2023-04-24T08:32:27;100932.05;;;9.21;38.58
76680;BME280;65597;51.520;-0.224;2023-04-24T08:34:52;100934.39;;;8.66;40.55
76680;BME280;65597;51.520;-0.224;2023-04-24T08:37:18;100938.22;;;8.46;40.62
76680;BME280;65597;51.520;-0.224;2023-04-24T08:39:43;100933.33;;;8.57;39.76
76680;BME280;65597;51.520;-0.224;2023-04-24T08:42:11;100935.96;;;9.01;39.82
76680;BME280;65597;51.520;-0.224;2023-04-24T08:44:35;100934.88;;;8.19;40.24
76680;BME280;65597;51.520;-0.224;2023-04-24T08:47:00;100934.60;;;8.27;40.94
76680;BME280;65597;51.520;-0.224;2023-04-24T08:49:31;100937.72;;;8.92;39.95
76680;BME280;65597;51.520;-0.224;2023-04-24T08:51:52;100935.56;;;9.20;39.86
76680;BME280;65597;51.520;-0.224;2023-04-24T08:54:16;100938.59;;;8.76;40.43
76680;BME280;65597;51.520;-0.224;2023-04-24T08:56:43;100943.47;;;9.04;39.45
76680;BME280;65597;51.520;-0.224;2023-04-24T08:59:06;100944.61;;;8.82;39.74
76680;BME280;65597;51.520;-0.224;2023-04-24T09:01:32;100941.67;;;8.57;39.85
76680;BME280;65597;51.520;-0.224;2023-04-24T09:03:57;100940.49;;;8.92;40.00
76680;BME280;65597;51.520;-0.224;2023-04-24T09:06:23;100937.28;;;9.05;39.87
76680;BME280;65597;51.520;-0.224;2023-04-24T09:08:51;100933.29;;;9.01;38.50
76680;BME280;65597;51.520;-0.224;2023-04-24T09:11:13;100937.26;;;8.80;39.95
76680;BME280;65597;51.520;-0.224;2023-04-24T09:13:39;100944.04;;;8.88;40.10
76680;BME280;65597;51.520;-0.224;2023-04-24T09:16:04;100949.85;;;8.28;40.88
76680;BME280;65597;51.520;-0.224;2023-04-24T09:18:29;100945.46;;;8.52;39.32
76680;BME280;65597;51.520;-0.224;2023-04-24T09:21:00;100945.95;;;8.98;39.61
76680;BME280;65597;51.520;-0.224;2023-04-24T09:23:20;100951.20;;;8.28;41.33
76680;BME280;65597;51.520;-0.224;2023-04-24T09:25:45;100955.29;;;8.10;41.07
76680;BME280;65597;51.520;-0.224;2023-04-24T09:28:13;100956.65;;;8.44;41.13
76680;BME280;65597;51.520;-0.224;2023-04-24T09:30:36;100953.91;;;8.64;39.91
76680;BME280;65597;51.520;-0.224;2023-04-24T09:33:15;100957.94;;;8.91;40.34
76680;BME280;65597;51.520;-0.224;2023-04-24T09:35:27;100960.89;;;8.72;40.78
76680;BME280;65597;51.520;-0.224;2023-04-24T09:37:52;100969.53;;;8.48;41.02
76680;BME280;65597;51.520;-0.224;2023-04-24T09:40:20;100972.86;;;8.37;41.10
76680;BME280;65597;51.520;-0.224;2023-04-24T09:42:44;100974.41;;;8.42;41.00
76680;BME280;65597;51.520;-0.224;2023-04-24T09:45:09;100982.37;;;8.38;40.93
76680;BME280;65597;51.520;-0.224;2023-04-24T09:47:36;100983.39;;;8.70;40.82
76680;BME280;65597;51.520;-0.224;2023-04-24T09:50:11;100985.53;;;8.08;41.78
76680;BME280;65597;51.520;-0.224;2023-04-24T09:52:25;100984.45;;;7.82;42.13
76680;BME280;65597;51.520;-0.224;2023-04-24T09:54:57;100987.29;;;8.52;41.49
76680;BME280;65597;51.520;-0.224;2023-04-24T09:57:16;100994.77;;;8.25;41.57
76680;BME280;65597;51.520;-0.224;2023-04-24T09:59:42;101002.81;;;8.41;40.88
76680;BME280;65597;51.520;-0.224;2023-04-24T10:02:16;101002.19;;;8.31;41.31
76680;BME280;65597;51.520;-0.224;2023-04-24T10:04:33;101006.05;;;8.51;41.26
76680;BME280;65597;51.520;-0.224;2023-04-24T10:06:58;101001.40;;;8.46;41.20
76680;BME280;65597;51.520;-0.224;2023-04-24T10:09:25;101003.78;;;8.14;42.10
76680;BME280;65597;51.520;-0.224;2023-04-24T10:11:50;101002.04;;;7.73;43.28
76680;BME280;65597;51.520;-0.224;2023-04-24T10:14:16;100999.17;;;8.16;42.83
76680;BME280;65597;51.520;-0.224;2023-04-24T10:16:42;100999.14;;;8.75;41.68
76680;BME280;65597;51.520;-0.224;2023-04-24T10:19:06;101000.53;;;8.63;41.81
76680;BME280;65597;51.520;-0.224;2023-04-24T10:21:32;101004.63;;;8.89;41.34
76680;BME280;65597;51.520;-0.224;2023-04-24T10:23:57;101011.03;;;9.04;40.72
76680;BME280;65597;51.520;-0.224;2023-04-24T10:26:22;101011.53;;;9.00;40.66
76680;BME280;65597;51.520;-0.224;2023-04-24T10:28:48;101020.64;;;8.95;41.32
76680;BME280;65597;51.520;-0.224;2023-04-24T10:31:14;101020.76;;;8.55;42.00
76680;BME280;65597;51.520;-0.224;2023-04-24T10:33:40;101019.66;;;8.53;41.16
76680;BME280;65597;51.520;-0.224;2023-04-24T10:36:04;101020.60;;;9.04;42.45
76680;BME280;65597;51.520;-0.224;2023-04-24T10:38:30;101014.53;;;9.12;41.96
76680;BME280;65597;51.520;-0.224;2023-04-24T10:43:20;101013.50;;;9.81;40.21
76680;BME280;65597;51.520;-0.224;2023-04-24T10:46:00;101011.22;;;9.27;39.86
76680;BME280;65597;51.520;-0.224;2023-04-24T10:48:16;101011.22;;;9.74;39.72
76680;BME280;65597;51.520;-0.224;2023-04-24T10:50:43;101009.00;;;9.83;39.64
76680;BME280;65597;51.520;-0.224;2023-04-24T10:53:07;101013.24;;;9.80;39.32
76680;BME280;65597;51.520;-0.224;2023-04-24T10:55:43;101016.35;;;10.32;39.16
76680;BME280;65597;51.520;-0.224;2023-04-24T10:58:02;101018.18;;;10.28;39.03
76680;BME280;65597;51.520;-0.224;2023-04-24T11:00:20;101019.65;;;10.05;38.64
76680;BME280;65597;51.520;-0.224;2023-04-24T11:02:45;101023.66;;;9.78;37.89
76680;BME280;65597;51.520;-0.224;2023-04-24T11:05:10;101025.18;;;10.22;37.17
76680;BME280;65597;51.520;-0.224;2023-04-24T11:10:06;101026.58;;;9.93;38.26
76680;BME280;65597;51.520;-0.224;2023-04-24T11:12:27;101028.43;;;9.79;38.44
76680;BME280;65597;51.520;-0.224;2023-04-24T11:15:01;101030.92;;;10.59;37.82
76680;BME280;65597;51.520;-0.224;2023-04-24T11:17:29;101030.59;;;10.17;38.04
76680;BME280;65597;51.520;-0.224;2023-04-24T11:19:41;101028.14;;;10.45;38.08
76680;BME280;65597;51.520;-0.224;2023-04-24T11:22:14;101031.58;;;10.73;36.86
76680;BME280;65597;51.520;-0.224;2023-04-24T11:24:37;101035.89;;;11.24;36.51
76680;BME280;65597;51.520;-0.224;2023-04-24T11:26:59;101036.93;;;11.31;35.92
76680;BME280;65597;51.520;-0.224;2023-04-24T11:29:39;101039.80;;;10.96;35.87
76680;BME280;65597;51.520;-0.224;2023-04-24T11:31:48;101040.99;;;11.03;36.89
76680;BME280;65597;51.520;-0.224;2023-04-24T11:34:14;101039.72;;;11.04;36.67
76680;BME280;65597;51.520;-0.224;2023-04-24T11:36:40;101039.78;;;10.46;37.21
76680;BME280;65597;51.520;-0.224;2023-04-24T11:39:05;101035.13;;;9.95;36.70
76680;BME280;65597;51.520;-0.224;2023-04-24T11:41:30;101034.12;;;10.61;36.71
76680;BME280;65597;51.520;-0.224;2023-04-24T11:43:56;101036.22;;;10.93;36.15
76680;BME280;65597;51.520;-0.224;2023-04-24T11:46:21;101039.69;;;10.61;36.26
76680;BME280;65597;51.520;-0.224;2023-04-24T11:48:46;101042.55;;;11.16;36.11
76680;BME280;65597;51.520;-0.224;2023-04-24T11:51:12;101044.25;;;11.03;36.56
76680;BME280;65597;51.520;-0.224;2023-04-24T11:53:37;101038.31;;;10.57;35.98
76680;BME280;65597;51.520;-0.224;2023-04-24T11:56:03;101040.74;;;10.27;36.83
76680;BME280;65597;51.520;-0.224;2023-04-24T11:58:28;101038.95;;;10.49;37.03
76680;BME280;65597;51.520;-0.224;2023-04-24T12:00:56;101037.89;;;10.38;37.01
76680;BME280;65597;51.520;-0.224;2023-04-24T12:03:19;101039.20;;;9.85;37.59
76680;BME280;65597;51.520;-0.224;2023-04-24T12:05:44;101039.95;;;10.27;37.10
76680;BME280;65597;51.520;-0.224;2023-04-24T12:08:11;101035.84;;;9.60;37.51
76680;BME280;65597;51.520;-0.224;2023-04-24T12:10:35;101030.19;;;10.14;36.63
76680;BME280;65597;51.520;-0.224;2023-04-24T12:13:00;101025.47;;;10.43;36.90
76680;BME280;65597;51.520;-0.224;2023-04-24T12:15:26;101023.16;;;10.05;37.35
76680;BME280;65597;51.520;-0.224;2023-04-24T12:17:54;101027.59;;;10.13;36.93
76680;BME280;65597;51.520;-0.224;2023-04-24T12:20:17;101026.16;;;10.60;35.95
76680;BME280;65597;51.520;-0.224;2023-04-24T12:22:44;101026.25;;;10.65;36.82
76680;BME280;65597;51.520;-0.224;2023-04-24T12:25:10;101028.17;;;10.94;36.46
76680;BME280;65597;51.520;-0.224;2023-04-24T12:27:33;101026.15;;;11.17;35.70
76680;BME280;65597;51.520;-0.224;2023-04-24T12:30:00;101026.55;;;10.96;36.32
76680;BME280;65597;51.520;-0.224;2023-04-24T12:32:24;101021.86;;;11.41;35.79
76680;BME280;65597;51.520;-0.224;2023-04-24T12:34:49;101016.89;;;11.34;34.96
76680;BME280;65597;51.520;-0.224;2023-04-24T12:37:14;101009.74;;;11.81;34.04
76680;BME280;65597;51.520;-0.224;2023-04-24T12:39:46;101010.23;;;11.92;33.83
76680;BME280;65597;51.520;-0.224;2023-04-24T12:42:06;101003.85;;;11.86;33.73